sensor_id;sensor_type;location;lat;lon;timestamp;pressure;altitude;pressure_sealevel;temperature;humidity
9893;BME280;4985;49.092;8.542;2024-01-27T00:02:17;101116.00;;;16.08;49.83
9893;BME280;4985;49.092;8.542;2024-01-27T00:04:42;101106.38;;;16.07;50.12
9893;BME280;4985;49.092;8.542;2024-01-27T00:07:07;101118.81;;;16.06;49.71
9893;BME280;4985;49.092;8.542;2024-01-27T00:09:33;101108.19;;;16.06;49.95
9893;BME280;4985;49.092;8.542;2024-01-27T00:11:58;101109.19;;;16.05;49.96
9893;BME280;4985;49.092;8.542;2024-01-27T00:14:24;101117.81;;;16.07;49.73
9893;BME280;4985;49.092;8.542;2024-01-27T00:16:49;101119.81;;;16.05;49.91
9893;BME280;4985;49.092;8.542;2024-01-27T00:19:14;101130.44;;;16.05;49.88
9893;BME280;4985;49.092;8.542;2024-01-27T00:21:39;101134.06;;;16.04;49.98
9893;BME280;4985;49.092;8.542;2024-01-27T00:24:05;101140.22;;;16.05;49.94
9893;BME280;4985;49.092;8.542;2024-01-27T00:26:30;101139.41;;;16.04;49.90
9893;BME280;4985;49.092;8.542;2024-01-27T00:28:56;101143.72;;;16.05;49.73
9893;BME280;4985;49.092;8.542;2024-01-27T00:31:21;101136.72;;;16.04;49.69
9893;BME280;4985;49.092;8.542;2024-01-27T00:33:47;101127.94;;;16.04;49.85
9893;BME280;4985;49.092;8.542;2024-01-27T00:36:12;101130.59;;;16.04;49.98
9893;BME280;4985;49.092;8.542;2024-01-27T00:38:37;101138.56;;;16.04;49.65
9893;BME280;4985;49.092;8.542;2024-01-27T00:41:04;101141.22;;;16.04;50.00
9893;BME280;4985;49.092;8.542;2024-01-27T00:43:30;101148.50;;;16.01;49.79
9893;BME280;4985;49.092;8.542;2024-01-27T00:45:55;101146.69;;;16.02;49.91
9893;BME280;4985;49.092;8.542;2024-01-27T00:48:21;101149.34;;;16.02;49.88
9893;BME280;4985;49.092;8.542;2024-01-27T00:50:47;101150.34;;;16.01;50.05
9893;BME280;4985;49.092;8.542;2024-01-27T00:53:13;101159.13;;;16.01;49.72
9893;BME280;4985;49.092;8.542;2024-01-27T00:55:38;101150.34;;;16.01;49.89
9893;BME280;4985;49.092;8.542;2024-01-27T00:58:03;101158.31;;;16.01;49.91
9893;BME280;4985;49.092;8.542;2024-01-27T01:00:29;101153.97;;;16.00;49.80
9893;BME280;4985;49.092;8.542;2024-01-27T01:02:54;101153.97;;;16.00;49.86
9893;BME280;4985;49.092;8.542;2024-01-27T01:05:19;101159.28;;;16.00;50.03
9893;BME280;4985;49.092;8.542;2024-01-27T01:07:45;101153.97;;;16.00;49.85
9893;BME280;4985;49.092;8.542;2024-01-27T01:10:10;101152.31;;;15.99;49.85
9893;BME280;4985;49.092;8.542;2024-01-27T01:12:35;101162.09;;;15.98;49.82
9893;BME280;4985;49.092;8.542;2024-01-27T01:15:01;101164.75;;;15.98;49.91
9893;BME280;4985;49.092;8.542;2024-01-27T01:17:27;101166.59;;;15.98;49.87
9893;BME280;4985;49.092;8.542;2024-01-27T01:19:52;101162.25;;;15.97;49.80
9893;BME280;4985;49.092;8.542;2024-01-27T01:22:18;101169.25;;;15.98;50.05
9893;BME280;4985;49.092;8.542;2024-01-27T01:24:43;101172.88;;;15.97;49.85
9893;BME280;4985;49.092;8.542;2024-01-27T01:27:08;101168.41;;;15.97;49.99
9893;BME280;4985;49.092;8.542;2024-01-27T01:29:34;101172.88;;;15.97;49.66
9893;BME280;4985;49.092;8.542;2024-01-27T01:32:00;101176.50;;;15.96;49.97
9893;BME280;4985;49.092;8.542;2024-01-27T01:34:28;101186.16;;;15.97;49.85
9893;BME280;4985;49.092;8.542;2024-01-27T01:36:53;101187.00;;;15.97;49.83
9893;BME280;4985;49.092;8.542;2024-01-27T01:39:19;101173.84;;;15.96;50.05
9893;BME280;4985;49.092;8.542;2024-01-27T01:41:44;101182.81;;;15.95;50.06
9893;BME280;4985;49.092;8.542;2024-01-27T01:44:10;101181.97;;;15.94;49.61
9893;BME280;4985;49.092;8.542;2024-01-27T01:46:35;101182.81;;;15.95;50.06
9893;BME280;4985;49.092;8.542;2024-01-27T01:49:01;101190.09;;;15.93;49.91
9893;BME280;4985;49.092;8.542;2024-01-27T01:51:27;101195.25;;;15.94;50.05
9893;BME280;4985;49.092;8.542;2024-01-27T01:53:56;101190.94;;;15.93;49.85
9893;BME280;4985;49.092;8.542;2024-01-27T01:56:22;101200.72;;;15.93;50.03
9893;BME280;4985;49.092;8.542;2024-01-27T01:58:47;101199.88;;;15.92;49.68
9893;BME280;4985;49.092;8.542;2024-01-27T02:01:12;101207.84;;;15.92;50.09
9893;BME280;4985;49.092;8.542;2024-01-27T02:03:38;101209.69;;;15.92;49.75
9893;BME280;4985;49.092;8.542;2024-01-27T02:06:03;101209.69;;;15.92;49.79
9893;BME280;4985;49.092;8.542;2024-01-27T02:08:28;101208.84;;;15.91;49.79
9893;BME280;4985;49.092;8.542;2024-01-27T02:10:54;101210.66;;;15.91;49.66
9893;BME280;4985;49.092;8.542;2024-01-27T02:13:21;101207.19;;;15.90;49.87
9893;BME280;4985;49.092;8.542;2024-01-27T02:15:48;101220.47;;;15.90;50.12
9893;BME280;4985;49.092;8.542;2024-01-27T02:18:13;101223.94;;;15.91;50.03
9893;BME280;4985;49.092;8.542;2024-01-27T02:20:39;101220.47;;;15.90;49.80
9893;BME280;4985;49.092;8.542;2024-01-27T02:23:05;101216.97;;;15.90;49.93
9893;BME280;4985;49.092;8.542;2024-01-27T02:25:31;101224.09;;;15.89;49.72
9893;BME280;4985;49.092;8.542;2024-01-27T02:27:56;101223.28;;;15.89;49.69
9893;BME280;4985;49.092;8.542;2024-01-27T02:30:22;101220.75;;;15.87;50.13
9893;BME280;4985;49.092;8.542;2024-01-27T02:32:47;101230.56;;;15.87;50.09
9893;BME280;4985;49.092;8.542;2024-01-27T02:35:12;101227.06;;;15.86;49.94
9893;BME280;4985;49.092;8.542;2024-01-27T02:37:39;101227.06;;;15.86;50.02
9893;BME280;4985;49.092;8.542;2024-01-27T02:40:05;101225.25;;;15.87;49.88
9893;BME280;4985;49.092;8.542;2024-01-27T02:42:31;101222.59;;;15.87;49.95
9893;BME280;4985;49.092;8.542;2024-01-27T02:44:56;101229.72;;;15.86;49.54
9893;BME280;4985;49.092;8.542;2024-01-27T02:47:21;101231.53;;;15.86;49.93
9893;BME280;4985;49.092;8.542;2024-01-27T02:49:47;101231.53;;;15.86;50.06
9893;BME280;4985;49.092;8.542;2024-01-27T02:52:12;101224.53;;;15.85;49.65
9893;BME280;4985;49.092;8.542;2024-01-27T02:54:39;101231.66;;;15.84;49.86
9893;BME280;4985;49.092;8.542;2024-01-27T02:57:04;101230.84;;;15.84;49.79
9893;BME280;4985;49.092;8.542;2024-01-27T02:59:29;101229.00;;;15.84;50.10
9893;BME280;4985;49.092;8.542;2024-01-27T03:01:55;101225.53;;;15.84;49.95
9893;BME280;4985;49.092;8.542;2024-01-27T03:04:20;101238.13;;;15.82;49.91
9893;BME280;4985;49.092;8.542;2024-01-27T03:06:46;101233.66;;;15.82;49.96
9893;BME280;4985;49.092;8.542;2024-01-27T03:09:12;101235.47;;;15.82;50.09
9893;BME280;4985;49.092;8.542;2024-01-27T03:11:37;101239.09;;;15.81;49.95
9893;BME280;4985;49.092;8.542;2024-01-27T03:14:02;101225.84;;;15.81;49.71
9893;BME280;4985;49.092;8.542;2024-01-27T03:16:28;101230.31;;;15.80;49.78
9893;BME280;4985;49.092;8.542;2024-01-27T03:18:53;101229.47;;;15.80;49.66
9893;BME280;4985;49.092;8.542;2024-01-27T03:21:18;101228.50;;;15.81;50.07
9893;BME280;4985;49.092;8.542;2024-01-27T03:23:44;101230.47;;;15.79;49.80
9893;BME280;4985;49.092;8.542;2024-01-27T03:26:09;101241.91;;;15.79;50.03
9893;BME280;4985;49.092;8.542;2024-01-27T03:28:35;101243.75;;;15.79;49.84
9893;BME280;4985;49.092;8.542;2024-01-27T03:31:01;101246.41;;;15.79;50.11
9893;BME280;4985;49.092;8.542;2024-01-27T03:33:26;101249.19;;;15.77;49.93
9893;BME280;4985;49.092;8.542;2024-01-27T03:35:54;101252.84;;;15.76;50.00
9893;BME280;4985;49.092;8.542;2024-01-27T03:38:19;101258.16;;;15.76;49.76
9893;BME280;4985;49.092;8.542;2024-01-27T03:40:45;101246.69;;;15.76;50.09
9893;BME280;4985;49.092;8.542;2024-01-27T03:43:10;101252.84;;;15.76;49.85
9893;BME280;4985;49.092;8.542;2024-01-27T03:45:35;101248.53;;;15.75;49.71
9893;BME280;4985;49.092;8.542;2024-01-27T03:48:01;101243.34;;;15.73;50.07
9893;BME280;4985;49.092;8.542;2024-01-27T03:50:26;101253.84;;;15.75;50.03
9893;BME280;4985;49.092;8.542;2024-01-27T03:52:52;101253.00;;;15.75;49.81
9893;BME280;4985;49.092;8.542;2024-01-27T03:55:17;101258.31;;;15.75;49.84
9893;BME280;4985;49.092;8.542;2024-01-27T03:57:42;101239.84;;;15.73;49.83
9893;BME280;4985;49.092;8.542;2024-01-27T04:00:08;101248.78;;;15.72;49.84
9893;BME280;4985;49.092;8.542;2024-01-27T04:02:34;101250.47;;;15.73;49.96
9893;BME280;4985;49.092;8.542;2024-01-27T04:04:59;101256.75;;;15.72;49.81
9893;BME280;4985;49.092;8.542;2024-01-27T04:07:24;101252.28;;;15.72;49.98
9893;BME280;4985;49.092;8.542;2024-01-27T04:09:49;101257.59;;;15.72;49.97
9893;BME280;4985;49.092;8.542;2024-01-27T04:12:15;101267.53;;;15.70;49.78
9893;BME280;4985;49.092;8.542;2024-01-27T04:14:40;101273.84;;;15.69;49.92
9893;BME280;4985;49.092;8.542;2024-01-27T04:17:05;101261.38;;;15.70;50.04
9893;BME280;4985;49.092;8.542;2024-01-27T04:19:31;101268.53;;;15.69;49.70
9893;BME280;4985;49.092;8.542;2024-01-27T04:21:56;101267.69;;;15.69;49.54
9893;BME280;4985;49.092;8.542;2024-01-27T04:24:21;101260.56;;;15.69;50.17
9893;BME280;4985;49.092;8.542;2024-01-27T04:26:47;101262.38;;;15.69;49.99
9893;BME280;4985;49.092;8.542;2024-01-27T04:29:13;101273.84;;;15.69;50.09
9893;BME280;4985;49.092;8.542;2024-01-27T04:31:40;101271.34;;;15.68;49.86
9893;BME280;4985;49.092;8.542;2024-01-27T04:34:07;101275.81;;;15.67;50.08
9893;BME280;4985;49.092;8.542;2024-01-27T04:36:32;101278.47;;;15.67;49.95
9893;BME280;4985;49.092;8.542;2024-01-27T04:38:57;101285.59;;;15.67;49.69
9893;BME280;4985;49.092;8.542;2024-01-27T04:41:22;101283.78;;;15.67;49.77
9893;BME280;4985;49.092;8.542;2024-01-27T04:43:48;101282.94;;;15.67;49.83
9893;BME280;4985;49.092;8.542;2024-01-27T04:46:13;101283.09;;;15.65;50.01
9893;BME280;4985;49.092;8.542;2024-01-27T04:48:39;101291.06;;;15.65;50.07
9893;BME280;4985;49.092;8.542;2024-01-27T04:51:04;101290.22;;;15.65;49.83
9893;BME280;4985;49.092;8.542;2024-01-27T04:53:29;101289.38;;;15.64;49.86
9893;BME280;4985;49.092;8.542;2024-01-27T04:55:55;101284.91;;;15.65;49.87
9893;BME280;4985;49.092;8.542;2024-01-27T04:58:20;101285.06;;;15.63;49.95
9893;BME280;4985;49.092;8.542;2024-01-27T05:00:46;101286.88;;;15.63;49.78
9893;BME280;4985;49.092;8.542;2024-01-27T05:03:11;101283.38;;;15.62;50.11
9893;BME280;4985;49.092;8.542;2024-01-27T05:05:42;101283.38;;;15.62;49.70
9893;BME280;4985;49.092;8.542;2024-01-27T05:08:08;101287.84;;;15.62;50.10
9893;BME280;4985;49.092;8.542;2024-01-27T05:10:35;101297.63;;;15.61;50.09
9893;BME280;4985;49.092;8.542;2024-01-27T05:13:00;101283.50;;;15.61;49.82
9893;BME280;4985;49.092;8.542;2024-01-27T05:15:25;101286.16;;;15.61;49.98
9893;BME280;4985;49.092;8.542;2024-01-27T05:17:51;101280.97;;;15.59;49.86
9893;BME280;4985;49.092;8.542;2024-01-27T05:20:17;101286.28;;;15.59;49.88
9893;BME280;4985;49.092;8.542;2024-01-27T05:22:42;101286.28;;;15.59;49.91
9893;BME280;4985;49.092;8.542;2024-01-27T05:25:08;101302.22;;;15.59;49.86
9893;BME280;4985;49.092;8.542;2024-01-27T05:27:37;101294.25;;;15.59;50.10
9893;BME280;4985;49.092;8.542;2024-01-27T05:30:02;101289.94;;;15.58;49.99
9893;BME280;4985;49.092;8.542;2024-01-27T05:32:27;101286.44;;;15.58;50.12
9893;BME280;4985;49.092;8.542;2024-01-27T05:34:53;101285.59;;;15.57;50.05
9893;BME280;4985;49.092;8.542;2024-01-27T05:37:18;101285.59;;;15.57;49.90
9893;BME280;4985;49.092;8.542;2024-01-27T05:39:43;101290.91;;;15.57;49.94
9893;BME280;4985;49.092;8.542;2024-01-27T05:42:09;101293.56;;;15.57;50.03
9893;BME280;4985;49.092;8.542;2024-01-27T05:44:34;101292.88;;;15.55;49.91
9893;BME280;4985;49.092;8.542;2024-01-27T05:46:59;101301.84;;;15.54;49.72
9893;BME280;4985;49.092;8.542;2024-01-27T05:49:25;101301.84;;;15.54;49.91
9893;BME280;4985;49.092;8.542;2024-01-27T05:51:50;101299.19;;;15.54;49.86
9893;BME280;4985;49.092;8.542;2024-01-27T05:54:15;101301.00;;;15.54;49.86
9893;BME280;4985;49.092;8.542;2024-01-27T05:56:42;101293.19;;;15.52;50.12
9893;BME280;4985;49.092;8.542;2024-01-27T05:59:07;101297.66;;;15.52;49.86
9893;BME280;4985;49.092;8.542;2024-01-27T06:01:33;101306.47;;;15.52;49.89
9893;BME280;4985;49.092;8.542;2024-01-27T06:03:58;101307.41;;;15.51;49.88
9893;BME280;4985;49.092;8.542;2024-01-27T06:06:24;101303.91;;;15.51;49.89
9893;BME280;4985;49.092;8.542;2024-01-27T06:08:49;101303.09;;;15.50;49.88
9893;BME280;4985;49.092;8.542;2024-01-27T06:11:23;101310.22;;;15.50;50.17
9893;BME280;4985;49.092;8.542;2024-01-27T06:13:48;101301.41;;;15.49;50.05
9893;BME280;4985;49.092;8.542;2024-01-27T06:16:14;101304.06;;;15.49;50.18
9893;BME280;4985;49.092;8.542;2024-01-27T06:18:39;101305.91;;;15.49;50.06
9893;BME280;4985;49.092;8.542;2024-01-27T06:21:05;101314.69;;;15.49;49.84
9893;BME280;4985;49.092;8.542;2024-01-27T06:23:31;101308.69;;;15.47;49.82
9893;BME280;4985;49.092;8.542;2024-01-27T06:25:56;101305.91;;;15.49;50.01
9893;BME280;4985;49.092;8.542;2024-01-27T06:28:21;101305.06;;;15.48;50.12
9893;BME280;4985;49.092;8.542;2024-01-27T06:30:47;101301.72;;;15.46;49.82
9893;BME280;4985;49.092;8.542;2024-01-27T06:33:12;101309.69;;;15.46;50.03
9893;BME280;4985;49.092;8.542;2024-01-27T06:35:37;101308.84;;;15.46;49.71
9893;BME280;4985;49.092;8.542;2024-01-27T06:38:03;101314.16;;;15.46;49.89
9893;BME280;4985;49.092;8.542;2024-01-27T06:40:28;101314.31;;;15.44;50.12
9893;BME280;4985;49.092;8.542;2024-01-27T06:42:53;101306.34;;;15.44;49.89
9893;BME280;4985;49.092;8.542;2024-01-27T06:45:19;101309.97;;;15.43;49.98
9893;BME280;4985;49.092;8.542;2024-01-27T06:47:44;101314.31;;;15.44;49.88
9893;BME280;4985;49.092;8.542;2024-01-27T06:50:09;101318.94;;;15.42;49.92
9893;BME280;4985;49.092;8.542;2024-01-27T06:52:35;101310.13;;;15.41;50.13
9893;BME280;4985;49.092;8.542;2024-01-27T06:55:01;101313.63;;;15.42;49.78
9893;BME280;4985;49.092;8.542;2024-01-27T06:57:26;101311.94;;;15.41;49.69
9893;BME280;4985;49.092;8.542;2024-01-27T06:59:52;101318.22;;;15.40;49.63
9893;BME280;4985;49.092;8.542;2024-01-27T07:04:49;101315.56;;;15.40;49.84
9893;BME280;4985;49.092;8.542;2024-01-27T07:07:15;101314.88;;;15.38;49.91
9893;BME280;4985;49.092;8.542;2024-01-27T07:09:40;101319.19;;;15.39;49.83
9893;BME280;4985;49.092;8.542;2024-01-27T07:12:05;101322.00;;;15.37;49.79
9893;BME280;4985;49.092;8.542;2024-01-27T07:14:31;101319.34;;;15.37;49.72
9893;BME280;4985;49.092;8.542;2024-01-27T07:16:56;101320.19;;;15.38;49.87
9893;BME280;4985;49.092;8.542;2024-01-27T07:19:22;101316.69;;;15.37;49.90
9893;BME280;4985;49.092;8.542;2024-01-27T07:21:47;101321.16;;;15.37;49.95
9893;BME280;4985;49.092;8.542;2024-01-27T07:24:12;101325.63;;;15.36;50.05
9893;BME280;4985;49.092;8.542;2024-01-27T07:26:38;101322.16;;;15.36;49.92
9893;BME280;4985;49.092;8.542;2024-01-27T07:29:03;101331.09;;;15.35;49.92
9893;BME280;4985;49.092;8.542;2024-01-27T07:31:28;101328.44;;;15.35;49.93
9893;BME280;4985;49.092;8.542;2024-01-27T07:33:54;101326.78;;;15.34;49.93
9893;BME280;4985;49.092;8.542;2024-01-27T07:36:19;101322.28;;;15.34;49.75
9893;BME280;4985;49.092;8.542;2024-01-27T07:38:44;101327.75;;;15.33;50.18
9893;BME280;4985;49.092;8.542;2024-01-27T07:41:10;101324.25;;;15.32;50.15
9893;BME280;4985;49.092;8.542;2024-01-27T07:43:35;101331.38;;;15.32;50.14
9893;BME280;4985;49.092;8.542;2024-01-27T07:46:00;101331.38;;;15.32;50.22
9893;BME280;4985;49.092;8.542;2024-01-27T07:48:26;101327.91;;;15.31;49.90
9893;BME280;4985;49.092;8.542;2024-01-27T07:50:51;101335.03;;;15.31;50.06
9893;BME280;4985;49.092;8.542;2024-01-27T07:53:17;101330.69;;;15.30;49.76
9893;BME280;4985;49.092;8.542;2024-01-27T07:55:42;101336.84;;;15.30;50.16
9893;BME280;4985;49.092;8.542;2024-01-27T07:58:07;101338.66;;;15.30;50.14
9893;BME280;4985;49.092;8.542;2024-01-27T08:00:33;101335.19;;;15.29;50.06
9893;BME280;4985;49.092;8.542;2024-01-27T08:02:58;101326.34;;;15.29;50.05
9893;BME280;4985;49.092;8.542;2024-01-27T08:05:24;101319.25;;;15.29;50.13
9893;BME280;4985;49.092;8.542;2024-01-27T08:07:49;101325.50;;;15.28;50.08
9893;BME280;4985;49.092;8.542;2024-01-27T08:10:15;101331.81;;;15.27;50.10
9893;BME280;4985;49.092;8.542;2024-01-27T08:12:40;101340.59;;;15.28;49.76
9893;BME280;4985;49.092;8.542;2024-01-27T08:15:06;101337.94;;;15.28;50.06
9893;BME280;4985;49.092;8.542;2024-01-27T08:17:32;101331.81;;;15.27;49.94
9893;BME280;4985;49.092;8.542;2024-01-27T08:19:57;101323.00;;;15.27;49.90
9893;BME280;4985;49.092;8.542;2024-01-27T08:22:22;101315.03;;;15.27;49.89
9893;BME280;4985;49.092;8.542;2024-01-27T08:24:48;101315.03;;;15.27;50.04
9893;BME280;4985;49.092;8.542;2024-01-27T08:27:13;101324.00;;;15.26;50.18
9893;BME280;4985;49.092;8.542;2024-01-27T08:29:38;101315.19;;;15.25;49.99
9893;BME280;4985;49.092;8.542;2024-01-27T08:32:04;101316.19;;;15.24;50.01
9893;BME280;4985;49.092;8.542;2024-01-27T08:34:29;101314.50;;;15.23;49.80
9893;BME280;4985;49.092;8.542;2024-01-27T08:37:01;101307.22;;;15.25;50.04
9893;BME280;4985;49.092;8.542;2024-01-27T08:39:27;101316.31;;;15.23;49.84
9893;BME280;4985;49.092;8.542;2024-01-27T08:41:52;101318.13;;;15.22;50.06
9893;BME280;4985;49.092;8.542;2024-01-27T08:44:17;101320.78;;;15.22;49.90
9893;BME280;4985;49.092;8.542;2024-01-27T08:46:43;101327.91;;;15.22;49.99
9893;BME280;4985;49.092;8.542;2024-01-27T08:49:08;101329.59;;;15.23;49.98
9893;BME280;4985;49.092;8.542;2024-01-27T08:51:33;101328.75;;;15.22;49.87
9893;BME280;4985;49.092;8.542;2024-01-27T08:53:59;101326.25;;;15.21;50.13
9893;BME280;4985;49.092;8.542;2024-01-27T08:56:25;101320.94;;;15.21;49.80
9893;BME280;4985;49.092;8.542;2024-01-27T08:58:50;101326.25;;;15.21;49.91
9893;BME280;4985;49.092;8.542;2024-01-27T09:01:17;101329.88;;;15.20;49.77
9893;BME280;4985;49.092;8.542;2024-01-27T09:03:42;101340.50;;;15.20;50.08
9893;BME280;4985;49.092;8.542;2024-01-27T09:06:08;101336.03;;;15.20;50.16
9893;BME280;4985;49.092;8.542;2024-01-27T09:08:33;101335.19;;;15.20;49.99
9893;BME280;4985;49.092;8.542;2024-01-27T09:11:00;101339.66;;;15.19;49.86
9893;BME280;4985;49.092;8.542;2024-01-27T09:13:25;101336.19;;;15.19;49.83
9893;BME280;4985;49.092;8.542;2024-01-27T09:15:52;101342.31;;;15.19;50.08
9893;BME280;4985;49.092;8.542;2024-01-27T09:18:17;101330.88;;;15.19;49.74
9893;BME280;4985;49.092;8.542;2024-01-27T09:20:42;101342.47;;;15.18;49.78
9893;BME280;4985;49.092;8.542;2024-01-27T09:23:08;101337.16;;;15.18;50.16
9893;BME280;4985;49.092;8.542;2024-01-27T09:25:33;101351.38;;;15.17;50.03
9893;BME280;4985;49.092;8.542;2024-01-27T09:27:58;101346.91;;;15.17;49.91
9893;BME280;4985;49.092;8.542;2024-01-27T09:30:26;101355.72;;;15.18;49.81
9893;BME280;4985;49.092;8.542;2024-01-27T09:32:51;101354.88;;;15.17;50.16
9893;BME280;4985;49.092;8.542;2024-01-27T09:35:17;101347.06;;;15.15;49.76
9893;BME280;4985;49.092;8.542;2024-01-27T09:37:42;101350.53;;;15.16;49.78
9893;BME280;4985;49.092;8.542;2024-01-27T09:40:08;101354.19;;;15.15;50.07
9893;BME280;4985;49.092;8.542;2024-01-27T09:42:34;101352.34;;;15.15;50.33
9893;BME280;4985;49.092;8.542;2024-01-27T09:45:01;101353.34;;;15.14;50.26
9893;BME280;4985;49.092;8.542;2024-01-27T09:47:28;101358.66;;;15.14;49.91
9893;BME280;4985;49.092;8.542;2024-01-27T09:49:53;101353.34;;;15.14;50.18
9893;BME280;4985;49.092;8.542;2024-01-27T09:52:19;101352.50;;;15.14;49.80
9893;BME280;4985;49.092;8.542;2024-01-27T09:54:44;101349.00;;;15.13;50.19
9893;BME280;4985;49.092;8.542;2024-01-27T09:57:10;101347.19;;;15.14;49.90
9893;BME280;4985;49.092;8.542;2024-01-27T09:59:39;101346.38;;;15.13;50.15
9893;BME280;4985;49.092;8.542;2024-01-27T10:02:09;101341.06;;;15.13;50.01
9893;BME280;4985;49.092;8.542;2024-01-27T10:04:37;101337.56;;;15.13;49.91
9893;BME280;4985;49.092;8.542;2024-01-27T10:07:03;101344.84;;;15.11;50.18
9893;BME280;4985;49.092;8.542;2024-01-27T10:09:29;101351.81;;;15.12;49.98
9893;BME280;4985;49.092;8.542;2024-01-27T10:11:55;101343.84;;;15.12;50.05
9893;BME280;4985;49.092;8.542;2024-01-27T10:14:21;101334.06;;;15.12;49.67
9893;BME280;4985;49.092;8.542;2024-01-27T10:16:47;101332.41;;;15.11;50.00
9893;BME280;4985;49.092;8.542;2024-01-27T10:19:17;101331.56;;;15.11;50.11
9893;BME280;4985;49.092;8.542;2024-01-27T10:21:44;101333.38;;;15.10;49.60
9893;BME280;4985;49.092;8.542;2024-01-27T10:24:10;101328.91;;;15.11;50.16
9893;BME280;4985;49.092;8.542;2024-01-27T10:26:35;101319.97;;;15.12;50.13
9893;BME280;4985;49.092;8.542;2024-01-27T10:29:01;101315.81;;;15.09;49.84
9893;BME280;4985;49.092;8.542;2024-01-27T10:31:31;101310.50;;;15.09;49.84
9893;BME280;4985;49.092;8.542;2024-01-27T10:33:57;101309.66;;;15.09;49.96
9893;BME280;4985;49.092;8.542;2024-01-27T10:36:24;101306.16;;;15.08;50.14
9893;BME280;4985;49.092;8.542;2024-01-27T10:38:51;101307.84;;;15.09;50.05
9893;BME280;4985;49.092;8.542;2024-01-27T10:41:22;101299.88;;;15.09;49.94
9893;BME280;4985;49.092;8.542;2024-01-27T10:43:50;101299.06;;;15.09;50.08
9893;BME280;4985;49.092;8.542;2024-01-27T10:46:19;101304.34;;;15.09;49.94
9893;BME280;4985;49.092;8.542;2024-01-27T10:48:49;101298.22;;;15.08;49.82
9893;BME280;4985;49.092;8.542;2024-01-27T10:51:16;101300.03;;;15.08;49.87
9893;BME280;4985;49.092;8.542;2024-01-27T10:53:45;101303.53;;;15.08;50.00
9893;BME280;4985;49.092;8.542;2024-01-27T10:56:14;101295.56;;;15.08;49.97
9893;BME280;4985;49.092;8.542;2024-01-27T10:58:40;101289.41;;;15.08;49.91
9893;BME280;4985;49.092;8.542;2024-01-27T11:01:11;101295.56;;;15.08;50.16
9893;BME280;4985;49.092;8.542;2024-01-27T11:03:40;101293.91;;;15.07;49.85
9893;BME280;4985;49.092;8.542;2024-01-27T11:06:07;101297.53;;;15.06;49.86
9893;BME280;4985;49.092;8.542;2024-01-27T11:08:37;101290.25;;;15.08;49.83
9893;BME280;4985;49.092;8.542;2024-01-27T11:11:03;101285.09;;;15.07;50.12
9893;BME280;4985;49.092;8.542;2024-01-27T11:13:30;101293.91;;;15.07;49.92
9893;BME280;4985;49.092;8.542;2024-01-27T11:15:57;101283.28;;;15.07;49.81
9893;BME280;4985;49.092;8.542;2024-01-27T11:18:24;101277.97;;;15.07;50.10
9893;BME280;4985;49.092;8.542;2024-01-27T11:20:53;101286.91;;;15.06;49.90
9893;BME280;4985;49.092;8.542;2024-01-27T11:23:19;101292.22;;;15.06;49.91
9893;BME280;4985;49.092;8.542;2024-01-27T11:25:44;101279.91;;;15.05;49.80
9893;BME280;4985;49.092;8.542;2024-01-27T11:28:14;101281.63;;;15.06;50.04
9893;BME280;4985;49.092;8.542;2024-01-27T11:30:44;101294.88;;;15.06;49.88
9893;BME280;4985;49.092;8.542;2024-01-27T11:33:10;101294.88;;;15.06;49.91
9893;BME280;4985;49.092;8.542;2024-01-27T11:35:35;101285.22;;;15.05;49.95
9893;BME280;4985;49.092;8.542;2024-01-27T11:38:01;101286.91;;;15.06;49.86
9893;BME280;4985;49.092;8.542;2024-01-27T11:40:26;101278.97;;;15.06;50.08
9893;BME280;4985;49.092;8.542;2024-01-27T11:42:56;101276.31;;;15.06;50.08
9893;BME280;4985;49.092;8.542;2024-01-27T11:45:24;101286.91;;;15.06;50.04
9893;BME280;4985;49.092;8.542;2024-01-27T11:47:49;101271.00;;;15.06;49.93
9893;BME280;4985;49.092;8.542;2024-01-27T11:50:18;101274.59;;;15.05;49.77
9893;BME280;4985;49.092;8.542;2024-01-27T11:52:44;101275.44;;;15.06;49.95
9893;BME280;4985;49.092;8.542;2024-01-27T11:55:10;101269.31;;;15.05;50.10
9893;BME280;4985;49.092;8.542;2024-01-27T11:57:35;101264.00;;;15.05;49.64
9893;BME280;4985;49.092;8.542;2024-01-27T12:00:00;101262.19;;;15.06;49.81
9893;BME280;4985;49.092;8.542;2024-01-27T12:02:26;101258.69;;;15.05;49.83
9893;BME280;4985;49.092;8.542;2024-01-27T12:04:51;101263.03;;;15.06;50.02
9893;BME280;4985;49.092;8.542;2024-01-27T12:07:17;101249.78;;;15.06;49.95
9893;BME280;4985;49.092;8.542;2024-01-27T12:09:46;101248.06;;;15.05;49.80
9893;BME280;4985;49.092;8.542;2024-01-27T12:12:13;101244.47;;;15.06;49.89
9893;BME280;4985;49.092;8.542;2024-01-27T12:14:49;101246.25;;;15.06;49.88
9893;BME280;4985;49.092;8.542;2024-01-27T12:17:14;101246.25;;;15.06;50.08
9893;BME280;4985;49.092;8.542;2024-01-27T12:19:51;101239.16;;;15.06;49.90
9893;BME280;4985;49.092;8.542;2024-01-27T12:22:28;101237.47;;;15.05;49.97
9893;BME280;4985;49.092;8.542;2024-01-27T12:24:54;101225.03;;;15.06;49.74
9893;BME280;4985;49.092;8.542;2024-01-27T12:27:21;101216.25;;;15.05;49.83
9893;BME280;4985;49.092;8.542;2024-01-27T12:29:48;101218.91;;;15.05;50.07
9893;BME280;4985;49.092;8.542;2024-01-27T12:32:15;101225.91;;;15.06;49.90
9893;BME280;4985;49.092;8.542;2024-01-27T12:34:41;101219.63;;;15.07;49.81
9893;BME280;4985;49.092;8.542;2024-01-27T12:37:07;101223.25;;;15.06;49.71
9893;BME280;4985;49.092;8.542;2024-01-27T12:39:33;101230.22;;;15.07;49.88
9893;BME280;4985;49.092;8.542;2024-01-27T12:41:58;101236.38;;;15.08;49.87
9893;BME280;4985;49.092;8.542;2024-01-27T12:44:24;101230.22;;;15.07;49.78
9893;BME280;4985;49.092;8.542;2024-01-27T12:46:49;101232.88;;;15.07;49.85
9893;BME280;4985;49.092;8.542;2024-01-27T12:49:14;101231.22;;;15.06;49.91
9893;BME280;4985;49.092;8.542;2024-01-27T12:51:40;101232.03;;;15.07;49.91
9893;BME280;4985;49.092;8.542;2024-01-27T12:54:05;101241.81;;;15.06;49.64
9893;BME280;4985;49.092;8.542;2024-01-27T12:56:31;101233.88;;;15.06;49.58
9893;BME280;4985;49.092;8.542;2024-01-27T12:58:56;101223.25;;;15.06;49.59
9893;BME280;4985;49.092;8.542;2024-01-27T13:01:22;101224.91;;;15.07;49.73
9893;BME280;4985;49.092;8.542;2024-01-27T13:03:47;101222.28;;;15.07;49.75
9893;BME280;4985;49.092;8.542;2024-01-27T13:06:13;101224.91;;;15.07;49.80